Skip Navigation Links Skip Navigation Links

Current Weather

Gwinnett County - Briscoe Field, Lawrenceville, Ga.

For information only: do not use for flight planning or navigation.
Latest weather
Observation time Tuesday, January 26, 2021 5:56 PM EST
Local time Tuesday, January 26, 2021 6:52 PM EST
Flight conditions Visual Meteorological Conditions
Winds
Wind direction West (270°)
Wind speed 5 mph
Visibility 10 mi.
Sky condition
Ceiling unlimited
Cloud layer scattered clouds 10,000 ft.
Temperature 63°F
Dewpoint 45°F
Altimeter 29.93 in.Hg
Derived measurements
Relative humidity 52%
Density altitude 1457 ft.
Remarks
Automated weather observing station with precipitation discriminator.
Sea-level-pressure sensor not operating.
METAR KLZU 262256Z 27004KT 10SM SCT100 17/07 A2993 RMK AO2 SLPNO T01720072

Settings

Location code

InnerDrive.Weather 4.0.6770.0 Release CLR 4.0.30319.42000
Copyright ©2018 Inner Drive Technology. All rights reserved. Portions Copyright ©1986-2018 David Braverman.

Find weather

Site navigation


Skip Navigation Links

Place info

Page info

PayPal - The safer, easier way to pay online!

Return home.

Copyright ©2021 Inner Drive Technology. Purveyors of fine, hand-crafted computer software. Page printed 2021-01-26T23:52:40 UTC.